createdAt,value
2018-05-14T00:00:26.581Z,4.00
2018-05-14T00:01:26.600Z,4.00
2018-05-14T00:02:26.609Z,4.00
2018-05-14T00:03:26.629Z,4.00
2018-05-14T00:04:26.650Z,4.00
2018-05-14T00:05:26.660Z,4.00
2018-05-14T00:06:26.678Z,4.00
2018-05-14T00:07:26.694Z,4.00
2018-05-14T00:08:26.710Z,4.00
2018-05-14T00:09:26.724Z,4.00
2018-05-14T00:10:26.853Z,4.00
2018-05-14T00:11:26.762Z,4.00
2018-05-14T00:12:26.778Z,4.00
2018-05-14T00:13:26.793Z,4.00
2018-05-14T00:14:26.816Z,4.00
2018-05-14T00:15:26.824Z,4.00
2018-05-14T00:16:26.905Z,4.00
2018-05-14T00:17:26.857Z,4.00
2018-05-14T00:18:26.874Z,4.00
2018-05-14T00:19:26.899Z,4.00
2018-05-14T00:20:26.902Z,4.00
2018-05-14T00:21:26.921Z,4.00
2018-05-14T00:22:26.966Z,4.00
2018-05-14T00:23:26.961Z,4.00
2018-05-14T00:24:26.974Z,4.00
2018-05-14T00:25:26.993Z,4.00
2018-05-14T00:26:27.003Z,4.00
2018-05-14T00:27:27.020Z,4.00
2018-05-14T00:28:27.038Z,4.00
2018-05-14T00:29:27.054Z,4.00
2018-05-14T00:30:27.127Z,4.00
2018-05-14T00:31:27.082Z,4.00
2018-05-14T00:32:27.101Z,4.00
2018-05-14T00:33:27.118Z,4.00
2018-05-14T00:34:27.135Z,4.00
2018-05-14T00:35:27.151Z,4.00
2018-05-14T00:36:27.162Z,4.00
2018-05-14T00:37:27.183Z,4.00
2018-05-14T00:38:27.201Z,4.00
2018-05-14T00:39:27.212Z,4.00
2018-05-14T00:40:27.234Z,4.00
2018-05-14T00:41:27.288Z,4.00
2018-05-14T00:42:27.261Z,4.00
2018-05-14T00:43:27.281Z,4.00
2018-05-14T00:44:27.296Z,4.00
2018-05-14T00:45:27.316Z,4.00
2018-05-14T00:46:27.324Z,4.00
2018-05-14T00:47:27.346Z,4.00
2018-05-14T00:48:27.360Z,4.00
2018-05-14T00:49:27.419Z,4.00
2018-05-14T00:50:27.388Z,4.00
2018-05-14T00:51:27.410Z,4.00
2018-05-14T00:52:27.422Z,4.00
2018-05-14T00:53:27.442Z,4.00
2018-05-14T00:54:27.456Z,4.00
2018-05-14T00:55:27.467Z,4.00
2018-05-14T00:56:27.488Z,4.00
2018-05-14T00:57:27.508Z,4.00
2018-05-14T00:58:27.572Z,4.00
2018-05-14T00:59:27.535Z,4.00
2018-05-14T01:00:27.636Z,4.00
2018-05-14T01:01:27.568Z,4.00
2018-05-14T01:02:27.593Z,4.00
2018-05-14T01:03:27.603Z,4.00
2018-05-14T01:04:27.616Z,4.00
2018-05-14T01:05:27.638Z,4.00
2018-05-14T01:06:27.699Z,4.00
2018-05-14T01:07:27.659Z,4.00
2018-05-14T01:08:27.681Z,4.00
2018-05-14T01:09:27.694Z,4.00
2018-05-14T01:10:27.762Z,4.00
2018-05-14T01:11:27.794Z,4.00
2018-05-14T01:12:27.748Z,4.00
2018-05-14T01:13:27.760Z,4.00
2018-05-14T01:14:27.772Z,4.00
2018-05-14T01:15:27.790Z,4.00
2018-05-14T01:16:27.809Z,4.00
2018-05-14T01:17:27.823Z,4.00
2018-05-14T01:18:27.843Z,4.00
2018-05-14T01:19:27.858Z,4.00
2018-05-14T01:20:27.867Z,4.00
2018-05-14T01:21:27.893Z,4.00
2018-05-14T01:22:27.901Z,4.00
2018-05-14T01:23:27.916Z,4.00
2018-05-14T01:24:27.938Z,4.00
2018-05-14T01:25:27.947Z,4.00
2018-05-14T01:26:27.971Z,4.00
2018-05-14T01:27:27.981Z,4.00
2018-05-14T01:28:28.049Z,4.00
2018-05-14T01:29:28.030Z,4.00
2018-05-14T01:30:28.036Z,4.00
2018-05-14T01:31:28.048Z,4.00
2018-05-14T01:32:28.062Z,4.00
2018-05-14T01:33:28.085Z,4.00
2018-05-14T01:34:28.150Z,4.00
2018-05-14T01:35:28.110Z,4.00
2018-05-14T01:36:28.127Z,4.00
2018-05-14T01:37:28.223Z,4.00
2018-05-14T01:38:28.159Z,4.00
2018-05-14T01:39:28.177Z,4.00
2018-05-14T01:40:28.192Z,4.00
2018-05-14T01:41:28.211Z,4.00
2018-05-14T01:42:28.229Z,4.00
2018-05-14T01:43:28.248Z,4.00
2018-05-14T01:44:28.261Z,4.00
2018-05-14T01:45:28.272Z,4.00
2018-05-14T01:46:28.339Z,4.00
2018-05-14T01:47:28.306Z,4.00
2018-05-14T01:48:28.323Z,4.00
2018-05-14T01:49:28.404Z,4.00
2018-05-14T01:50:28.357Z,4.00
2018-05-14T01:51:28.371Z,4.00
2018-05-14T01:52:28.388Z,4.00
2018-05-14T01:53:28.404Z,4.00
2018-05-14T01:54:28.421Z,4.00
2018-05-14T01:55:28.429Z,4.00
2018-05-14T01:56:28.456Z,4.00
2018-05-14T01:57:28.469Z,4.00
2018-05-14T01:58:28.481Z,4.00
2018-05-14T01:59:28.499Z,4.00
2018-05-14T02:00:28.518Z,4.00
2018-05-14T02:01:28.528Z,4.00
2018-05-14T02:02:28.547Z,4.00
2018-05-14T02:03:28.557Z,4.00
2018-05-14T02:04:28.624Z,4.00
2018-05-14T02:05:28.605Z,4.00
2018-05-14T02:06:28.611Z,4.00
2018-05-14T02:07:28.682Z,4.00
2018-05-14T02:08:28.642Z,4.00
2018-05-14T02:09:28.657Z,4.00
2018-05-14T02:10:28.672Z,4.00
2018-05-14T02:11:28.718Z,4.00
2018-05-14T02:12:28.706Z,4.00
2018-05-14T02:13:28.729Z,4.00
2018-05-14T02:14:28.736Z,4.00
2018-05-14T02:15:28.759Z,4.00
2018-05-14T02:16:28.764Z,4.00
2018-05-14T02:17:28.786Z,4.00
2018-05-14T02:18:28.804Z,4.00
2018-05-14T02:19:28.858Z,4.00
2018-05-14T02:20:28.831Z,4.00
2018-05-14T02:21:28.846Z,4.00
2018-05-14T02:22:28.864Z,4.00
2018-05-14T02:23:28.884Z,4.00
2018-05-14T02:24:28.899Z,4.00
2018-05-14T02:25:28.934Z,4.00
2018-05-14T02:26:28.935Z,4.00
2018-05-14T02:27:28.947Z,4.00
2018-05-14T02:28:28.959Z,4.00
2018-05-14T02:29:28.980Z,4.00
2018-05-14T02:30:28.991Z,4.00
2018-05-14T02:31:29.014Z,4.00
2018-05-14T02:32:29.023Z,4.00
2018-05-14T02:33:29.043Z,4.00
2018-05-14T02:34:29.061Z,4.00
2018-05-14T02:35:29.072Z,4.00
2018-05-14T02:36:29.085Z,4.00
2018-05-14T02:37:29.101Z,4.00
2018-05-14T02:38:29.123Z,4.00
2018-05-14T02:39:29.132Z,4.00
2018-05-14T02:40:29.151Z,4.00
2018-05-14T02:41:29.167Z,4.00
2018-05-14T02:42:29.183Z,4.00
2018-05-14T02:43:29.200Z,4.00
2018-05-14T02:44:29.217Z,4.00
2018-05-14T02:45:29.227Z,4.00
2018-05-14T02:46:29.295Z,4.00
2018-05-14T02:47:29.261Z,4.00
2018-05-14T02:48:29.275Z,4.00
2018-05-14T02:49:29.297Z,4.00
2018-05-14T02:50:29.312Z,4.00
2018-05-14T02:51:29.325Z,4.00
2018-05-14T02:52:29.389Z,4.00
2018-05-14T02:53:29.352Z,4.00
2018-05-14T02:54:29.371Z,4.00
2018-05-14T02:55:29.385Z,4.00
2018-05-14T02:56:29.501Z,4.00
2018-05-14T02:57:29.424Z,4.00
2018-05-14T02:58:29.490Z,4.00
2018-05-14T02:59:29.451Z,4.00
2018-05-14T03:00:29.466Z,4.00
2018-05-14T03:01:29.488Z,4.00
2018-05-14T03:02:29.536Z,4.00
2018-05-14T03:03:29.521Z,4.00
2018-05-14T03:05:36.657Z,4.00
2018-05-14T03:06:29.567Z,4.00
2018-05-14T03:07:29.579Z,4.00
2018-05-14T03:08:29.597Z,4.00
2018-05-14T03:09:29.607Z,4.00
2018-05-14T03:10:29.761Z,4.00
2018-05-14T03:11:29.640Z,4.00
2018-05-14T03:12:29.668Z,4.00
2018-05-14T03:13:29.675Z,4.00
2018-05-14T03:14:29.695Z,4.00
2018-05-14T03:15:29.703Z,4.00
2018-05-14T03:16:29.740Z,4.00
2018-05-14T03:17:29.734Z,4.00
2018-05-14T03:18:29.757Z,4.00
2018-05-14T03:19:29.765Z,4.00
2018-05-14T03:20:29.784Z,4.00
2018-05-14T03:21:29.801Z,4.00
2018-05-14T03:22:29.821Z,4.00
2018-05-14T03:23:29.833Z,4.00
2018-05-14T03:24:29.845Z,4.00
2018-05-14T03:25:29.868Z,4.00
2018-05-14T03:26:29.901Z,4.00
2018-05-14T03:27:29.897Z,4.00
2018-05-14T03:28:29.914Z,4.00
2018-05-14T03:29:29.932Z,4.00
2018-05-14T03:30:29.949Z,4.00
2018-05-14T03:31:29.975Z,4.00
2018-05-14T03:32:29.974Z,4.00
2018-05-14T03:33:29.989Z,4.00
2018-05-14T03:34:30.010Z,4.00
2018-05-14T03:35:30.025Z,4.00
2018-05-14T03:36:30.041Z,4.00
2018-05-14T03:37:30.057Z,4.00
2018-05-14T03:38:30.069Z,4.00
2018-05-14T03:39:30.169Z,4.00
2018-05-14T03:40:30.103Z,4.00
2018-05-14T03:41:30.116Z,4.00
2018-05-14T03:42:30.134Z,4.00
2018-05-14T03:43:30.147Z,4.00
2018-05-14T03:44:30.167Z,4.00
2018-05-14T03:45:30.196Z,4.00
2018-05-14T03:46:30.202Z,4.00
2018-05-14T03:47:30.221Z,4.00
2018-05-14T03:48:30.228Z,4.00
2018-05-14T03:49:30.253Z,4.00
2018-05-14T03:50:30.263Z,4.00
2018-05-14T03:51:30.320Z,4.00
2018-05-14T03:52:30.294Z,4.00
2018-05-14T03:53:30.313Z,4.00
2018-05-14T03:54:30.328Z,4.00
2018-05-14T03:55:30.343Z,4.00
2018-05-14T03:56:30.359Z,4.00
2018-05-14T03:57:30.404Z,4.00
2018-05-14T03:58:30.389Z,4.00
2018-05-14T03:59:30.401Z,4.00
2018-05-14T04:00:30.422Z,4.00
2018-05-14T04:01:30.438Z,4.00
2018-05-14T04:02:30.528Z,4.00
2018-05-14T04:03:30.550Z,4.00
2018-05-14T04:04:30.481Z,4.00
2018-05-14T04:05:30.498Z,4.00
2018-05-14T04:06:30.519Z,4.00
2018-05-14T04:07:30.532Z,4.00
2018-05-14T04:08:30.562Z,4.00
2018-05-14T04:09:30.561Z,4.00
2018-05-14T04:10:30.580Z,4.00
2018-05-14T04:11:30.592Z,4.00
2018-05-14T04:12:30.608Z,4.00
2018-05-14T04:13:30.621Z,4.00
2018-05-14T04:14:30.654Z,4.00
2018-05-14T04:15:30.661Z,4.00
2018-05-14T04:16:30.737Z,4.00
2018-05-14T04:17:30.693Z,4.00
2018-05-14T04:18:30.703Z,4.00
2018-05-14T04:19:30.721Z,4.00
2018-05-14T04:20:30.734Z,4.00
2018-05-14T04:21:30.757Z,4.00
2018-05-14T04:22:30.768Z,4.00
2018-05-14T04:23:30.789Z,4.00
2018-05-14T04:24:30.825Z,4.00
2018-05-14T04:25:30.813Z,4.00
2018-05-14T04:26:30.834Z,4.00
2018-05-14T04:27:30.847Z,4.00
2018-05-14T04:28:30.885Z,4.00
2018-05-14T04:29:30.888Z,4.00
2018-05-14T04:30:30.896Z,4.00
2018-05-14T04:31:30.911Z,4.00
2018-05-14T04:32:30.935Z,4.00
2018-05-14T04:33:30.947Z,4.00
2018-05-14T04:34:30.965Z,4.00
2018-05-14T04:35:30.981Z,4.00
2018-05-14T04:36:30.989Z,4.00
2018-05-14T04:37:31.006Z,4.00
2018-05-14T04:38:31.029Z,4.00
2018-05-14T04:39:31.092Z,4.00
2018-05-14T04:40:31.106Z,4.00
2018-05-14T04:41:31.075Z,4.00
2018-05-14T04:42:31.089Z,4.00
2018-05-14T04:43:31.109Z,4.00
2018-05-14T04:44:31.121Z,4.00
2018-05-14T04:45:31.141Z,4.00
2018-05-14T04:46:31.158Z,4.00
2018-05-14T04:47:31.173Z,4.00
2018-05-14T04:48:31.182Z,4.00
2018-05-14T04:49:31.207Z,4.00
2018-05-14T04:50:31.223Z,0.00
2018-05-14T04:51:31.235Z,0.00
2018-05-14T04:52:31.251Z,0.00
2018-05-14T04:53:31.271Z,0.00
2018-05-14T04:54:31.278Z,0.00
2018-05-14T04:55:31.294Z,0.00
2018-05-14T04:56:31.314Z,0.00
2018-05-14T04:57:31.333Z,4.00
2018-05-14T04:58:31.344Z,4.00
2018-05-14T04:59:31.362Z,4.00
2018-05-14T05:00:31.375Z,4.00
2018-05-14T05:01:31.392Z,4.00
2018-05-14T05:02:31.410Z,4.00
2018-05-14T05:03:31.424Z,4.00
2018-05-14T05:04:31.437Z,4.00
2018-05-14T05:05:31.456Z,8.00
2018-05-14T05:06:31.475Z,4.00
2018-05-14T05:07:31.489Z,4.00
2018-05-14T05:08:31.501Z,8.00
2018-05-14T05:09:31.520Z,8.00
2018-05-14T05:10:31.593Z,8.00
2018-05-14T05:11:31.567Z,12.00
2018-05-14T05:12:31.573Z,16.00
2018-05-14T05:13:31.589Z,12.00
2018-05-14T05:14:31.603Z,16.00
2018-05-14T05:15:31.620Z,20.00
2018-05-14T05:16:31.633Z,20.00
2018-05-14T05:17:31.665Z,28.00
2018-05-14T05:18:31.665Z,28.00
2018-05-14T05:19:31.684Z,36.00
2018-05-14T05:20:31.699Z,36.00
2018-05-14T05:21:31.710Z,44.00
2018-05-14T05:22:31.730Z,48.00
2018-05-14T05:23:31.756Z,56.00
2018-05-14T05:24:31.756Z,60.00
2018-05-14T05:25:31.775Z,68.00
2018-05-14T05:26:31.797Z,84.00
2018-05-14T05:27:31.813Z,96.00
2018-05-14T05:28:31.821Z,112.00
2018-05-14T05:29:31.839Z,124.00
2018-05-14T05:30:31.856Z,140.00
2018-05-14T05:31:31.870Z,156.00
2018-05-14T05:32:31.892Z,168.00
2018-05-14T05:33:31.907Z,184.00
2018-05-14T05:34:31.977Z,200.00
2018-05-14T05:35:31.939Z,216.00
2018-05-14T05:36:31.955Z,236.00
2018-05-14T05:37:31.979Z,248.00
2018-05-14T05:38:31.982Z,260.00
2018-05-14T05:39:32.003Z,276.00
2018-05-14T05:40:32.019Z,296.00
2018-05-14T05:41:32.036Z,308.00
2018-05-14T05:42:32.108Z,328.00
2018-05-14T05:43:32.134Z,344.00
2018-05-14T05:44:32.085Z,360.00
2018-05-14T05:45:32.109Z,380.00
2018-05-14T05:46:32.111Z,396.00
2018-05-14T05:47:32.130Z,412.00
2018-05-14T05:48:32.250Z,420.00
2018-05-14T05:49:32.160Z,416.00
2018-05-14T05:50:32.185Z,436.00
2018-05-14T05:51:32.199Z,464.00
2018-05-14T05:52:32.259Z,476.00
2018-05-14T05:53:32.225Z,460.00
2018-05-14T05:54:32.263Z,440.00
2018-05-14T05:55:32.257Z,444.00
2018-05-14T05:56:32.278Z,456.00
2018-05-14T05:57:32.289Z,472.00
2018-05-14T05:58:32.315Z,484.00
2018-05-14T05:59:32.325Z,504.00
2018-05-14T06:00:32.385Z,520.00
2018-05-14T06:01:32.354Z,532.00
2018-05-14T06:02:32.367Z,532.00
2018-05-14T06:03:32.384Z,544.00
2018-05-14T06:04:32.405Z,552.00
2018-05-14T06:05:32.420Z,564.00
2018-05-14T06:06:32.434Z,576.00
2018-05-14T06:07:32.455Z,588.00
2018-05-14T06:08:32.468Z,596.00
2018-05-14T06:09:32.547Z,608.00
2018-05-14T06:10:32.504Z,616.00
2018-05-14T06:11:32.512Z,628.00
2018-05-14T06:12:32.536Z,636.00
2018-05-14T06:13:32.545Z,648.00
2018-05-14T06:14:32.563Z,656.00
2018-05-14T06:15:32.621Z,664.00
2018-05-14T06:16:32.598Z,672.00
2018-05-14T06:17:32.612Z,680.00
2018-05-14T06:18:32.630Z,684.00
2018-05-14T06:19:32.643Z,692.00
2018-05-14T06:20:32.662Z,704.00
2018-05-14T06:21:32.677Z,712.00
2018-05-14T06:22:32.690Z,720.00
2018-05-14T06:23:32.708Z,736.00
2018-05-14T06:24:32.722Z,748.00
2018-05-14T06:25:32.741Z,756.00
2018-05-14T06:26:32.756Z,764.00
2018-05-14T06:27:32.778Z,780.00
2018-05-14T06:28:32.791Z,788.00
2018-05-14T06:29:32.807Z,788.00
2018-05-14T06:30:32.822Z,804.00
2018-05-14T06:31:32.839Z,816.00
2018-05-14T06:32:32.856Z,840.00
2018-05-14T06:33:32.872Z,868.00
2018-05-14T06:34:32.891Z,912.00
2018-05-14T06:35:33.052Z,976.00
2018-05-14T06:36:32.923Z,1012.00
2018-05-14T06:37:32.997Z,1068.00
2018-05-14T06:38:32.951Z,1192.00
2018-05-14T06:39:32.968Z,1280.00
2018-05-14T06:40:32.980Z,1368.00
2018-05-14T06:41:32.997Z,1616.00
2018-05-14T06:42:33.017Z,2056.00
2018-05-14T06:43:33.035Z,2168.00
2018-05-14T06:44:33.045Z,1592.00
2018-05-14T06:45:33.070Z,1296.00
2018-05-14T06:46:33.085Z,1256.00
2018-05-14T06:47:33.099Z,1252.00
2018-05-14T06:48:33.119Z,1264.00
2018-05-14T06:50:33.149Z,1324.00
2018-05-14T06:51:33.159Z,1384.00
2018-05-14T06:52:33.181Z,1472.00
2018-05-14T06:53:33.202Z,1688.00
2018-05-14T06:54:33.214Z,1804.00
2018-05-14T06:55:33.229Z,3720.00
2018-05-14T06:56:33.247Z,3612.00
2018-05-14T06:57:33.258Z,6160.00
2018-05-14T06:58:33.285Z,3456.00
2018-05-14T06:59:33.298Z,5356.00
2018-05-14T07:00:33.313Z,5924.00
2018-05-14T07:01:33.332Z,5196.00
2018-05-14T07:02:33.347Z,6424.00
2018-05-14T07:03:33.361Z,4000.00
2018-05-14T07:04:33.415Z,3540.00
2018-05-14T07:05:33.391Z,4992.00
2018-05-14T07:06:33.409Z,7884.00
2018-05-14T07:07:33.469Z,5372.00
2018-05-14T07:08:33.442Z,8288.00
2018-05-14T07:09:33.471Z,5804.00
2018-05-14T07:10:33.484Z,6596.00
2018-05-14T07:11:33.530Z,8304.00
2018-05-14T07:12:33.515Z,7772.00
2018-05-14T07:13:33.563Z,5248.00
2018-05-14T07:14:33.543Z,4088.00
2018-05-14T07:15:33.566Z,3492.00
2018-05-14T07:16:33.583Z,6452.00
2018-05-14T07:17:33.602Z,4996.00
2018-05-14T07:18:33.617Z,8224.00
2018-05-14T07:19:33.632Z,3832.00
2018-05-14T07:20:33.654Z,4864.00
2018-05-14T07:21:33.669Z,7416.00
2018-05-14T07:22:33.683Z,4396.00
2018-05-14T07:23:33.699Z,7120.00
2018-05-14T07:24:33.717Z,4560.00
2018-05-14T07:25:33.733Z,7668.00
2018-05-14T07:26:33.760Z,5716.00
2018-05-14T07:27:33.775Z,4704.00
2018-05-14T07:28:33.790Z,4260.00
2018-05-14T07:29:33.806Z,4292.00
2018-05-14T07:30:33.826Z,8484.00
2018-05-14T07:31:33.842Z,4768.00
2018-05-14T07:32:33.862Z,4640.00
2018-05-14T07:33:33.880Z,5864.00
2018-05-14T07:34:33.894Z,6064.00
2018-05-14T07:35:33.911Z,4284.00
2018-05-14T07:36:33.928Z,4908.00
2018-05-14T07:37:33.946Z,4764.00
2018-05-14T07:38:33.964Z,4024.00
2018-05-14T07:39:33.985Z,4960.00
2018-05-14T07:40:34.093Z,4516.00
2018-05-14T07:41:34.039Z,4272.00
2018-05-14T07:42:34.035Z,3076.00
2018-05-14T07:43:34.052Z,3480.00
2018-05-14T07:44:34.069Z,3184.00
2018-05-14T07:45:34.093Z,3896.00
2018-05-14T07:46:34.105Z,3088.00
2018-05-14T07:47:34.119Z,4160.00
2018-05-14T07:48:34.142Z,4180.00
2018-05-14T07:49:34.157Z,4200.00
2018-05-14T07:50:34.185Z,5752.00
2018-05-14T07:51:34.191Z,5480.00
2018-05-14T07:52:34.210Z,7096.00
2018-05-14T07:53:34.235Z,5024.00
2018-05-14T07:54:34.360Z,7644.00
2018-05-14T07:55:34.270Z,5780.00
2018-05-14T07:56:34.281Z,5144.00
2018-05-14T07:57:34.297Z,5640.00
2018-05-14T07:58:34.323Z,5444.00
2018-05-14T07:59:34.338Z,6036.00
2018-05-14T08:00:34.357Z,5860.00
2018-05-14T08:01:34.374Z,5300.00
2018-05-14T08:02:34.398Z,4692.00
2018-05-14T08:03:34.411Z,4200.00
2018-05-14T08:04:34.429Z,3928.00
2018-05-14T08:05:34.464Z,3604.00
2018-05-14T08:06:34.463Z,3644.00
2018-05-14T08:07:34.483Z,5264.00
2018-05-14T08:08:34.498Z,5312.00
2018-05-14T08:09:34.520Z,5168.00
2018-05-14T08:10:34.534Z,5212.00
2018-05-14T08:11:34.553Z,5504.00
2018-05-14T08:12:34.567Z,7796.00
2018-05-14T08:13:34.592Z,5412.00
2018-05-14T08:14:34.611Z,4928.00
2018-05-14T08:15:34.622Z,12440.00
2018-05-14T08:16:34.640Z,6324.00
2018-05-14T08:17:34.662Z,6424.00
2018-05-14T08:18:34.681Z,8172.00
2018-05-14T08:19:34.699Z,5088.00
2018-05-14T08:20:34.786Z,5732.00
2018-05-14T08:21:34.775Z,4768.00
2018-05-14T08:22:34.754Z,4832.00
2018-05-14T08:23:34.789Z,4504.00
2018-05-14T08:24:34.790Z,4584.00
2018-05-14T08:25:34.856Z,4452.00
2018-05-14T08:26:34.879Z,4316.00
2018-05-14T08:27:34.844Z,4124.00
2018-05-14T08:28:34.861Z,5856.00
2018-05-14T08:29:34.878Z,4852.00
2018-05-14T08:30:34.908Z,8840.00
2018-05-14T08:31:34.912Z,4168.00
2018-05-14T08:32:34.942Z,4236.00
2018-05-14T08:33:34.951Z,4292.00
2018-05-14T08:34:34.966Z,5052.00
2018-05-14T08:35:34.990Z,4872.00
2018-05-14T08:36:35.003Z,4480.00
2018-05-14T08:37:35.023Z,9508.00
2018-05-14T08:38:35.038Z,5088.00
2018-05-14T08:39:35.062Z,11144.00
2018-05-14T08:40:35.083Z,14976.00
2018-05-14T08:41:35.097Z,15264.00
2018-05-14T08:42:35.113Z,6720.00
2018-05-14T08:43:35.135Z,5772.00
2018-05-14T08:44:35.218Z,5744.00
2018-05-14T08:45:35.172Z,4916.00
2018-05-14T08:46:35.189Z,4840.00
2018-05-14T08:47:35.205Z,4248.00
2018-05-14T08:48:35.221Z,8852.00
2018-05-14T08:49:35.243Z,15456.00
2018-05-14T08:50:35.263Z,9320.00
2018-05-14T08:51:35.282Z,8064.00
2018-05-14T08:52:35.300Z,16224.00
2018-05-14T08:53:35.321Z,10120.00
2018-05-14T08:54:35.484Z,12552.00
2018-05-14T08:55:35.360Z,5256.00
2018-05-14T08:56:35.374Z,7892.00
2018-05-14T08:57:35.495Z,6580.00
2018-05-14T08:58:35.410Z,6772.00
2018-05-14T08:59:35.431Z,8160.00
2018-05-14T09:00:35.449Z,12484.00
2018-05-14T09:01:35.472Z,9188.00
2018-05-14T09:02:35.493Z,15200.00
2018-05-14T09:03:35.509Z,14300.00
2018-05-14T09:04:35.524Z,5912.00
2018-05-14T09:05:35.546Z,16000.00
2018-05-14T09:06:35.572Z,6956.00
2018-05-14T09:07:35.592Z,8480.00
2018-05-14T09:08:35.673Z,9356.00
2018-05-14T09:09:35.622Z,8632.00
2018-05-14T09:10:35.647Z,5456.00
2018-05-14T09:11:35.670Z,16064.00
2018-05-14T09:12:35.689Z,10716.00
2018-05-14T09:13:35.703Z,8092.00
2018-05-14T09:14:35.730Z,9940.00
2018-05-14T09:15:35.747Z,16864.00
2018-05-14T09:16:35.761Z,6940.00
2018-05-14T09:17:35.781Z,17184.00
2018-05-14T09:18:35.807Z,9624.00
2018-05-14T09:19:36.002Z,9448.00
2018-05-14T09:20:35.847Z,5908.00
2018-05-14T09:21:35.863Z,16448.00
2018-05-14T09:22:35.885Z,7364.00
2018-05-14T09:23:35.908Z,10124.00
2018-05-14T09:24:35.926Z,5640.00
2018-05-14T09:25:36.141Z,17184.00
2018-05-14T09:26:35.968Z,5796.00
2018-05-14T09:27:35.985Z,6948.00
2018-05-14T09:28:36.026Z,6688.00
2018-05-14T09:29:36.032Z,5116.00
2018-05-14T09:30:36.049Z,5876.00
2018-05-14T09:31:36.099Z,7024.00
2018-05-14T09:32:36.092Z,6812.00
2018-05-14T09:33:36.109Z,7804.00
2018-05-14T09:34:36.142Z,5508.00
2018-05-14T09:35:36.153Z,7488.00
2018-05-14T09:36:36.175Z,5132.00
2018-05-14T09:37:36.198Z,12840.00
2018-05-14T09:38:36.213Z,5712.00
2018-05-14T09:39:36.235Z,5940.00
2018-05-14T09:40:36.258Z,5296.00
2018-05-14T09:41:36.276Z,6144.00
2018-05-14T09:42:36.294Z,8636.00
2018-05-14T09:43:36.315Z,8372.00
2018-05-14T09:44:36.372Z,16512.00
2018-05-14T09:45:36.351Z,14704.00
2018-05-14T09:46:36.377Z,6988.00
2018-05-14T09:47:36.398Z,16608.00
2018-05-14T09:48:36.419Z,14872.00
2018-05-14T09:49:36.438Z,16768.00
2018-05-14T09:50:36.458Z,16224.00
2018-05-14T09:51:36.479Z,7040.00
2018-05-14T09:52:36.494Z,8628.00
2018-05-14T09:53:36.517Z,15648.00
2018-05-14T09:54:36.535Z,15104.00
2018-05-14T09:55:36.564Z,15456.00
2018-05-14T09:56:36.583Z,13324.00
2018-05-14T09:57:36.603Z,4732.00
2018-05-14T09:58:36.621Z,14584.00
2018-05-14T09:59:36.642Z,11872.00
2018-05-14T10:00:36.661Z,14532.00
2018-05-14T10:01:36.686Z,14692.00
2018-05-14T10:02:36.702Z,14060.00
2018-05-14T10:03:36.723Z,14548.00
2018-05-14T10:04:36.744Z,14472.00
2018-05-14T10:05:36.769Z,12604.00
2018-05-14T10:06:36.793Z,14832.00
2018-05-14T10:07:36.878Z,13720.00
2018-05-14T10:08:36.829Z,14288.00
2018-05-14T10:09:36.855Z,14648.00
2018-05-14T10:10:36.895Z,14688.00
2018-05-14T10:11:36.891Z,14704.00
2018-05-14T10:12:36.917Z,15104.00
2018-05-14T10:13:37.028Z,5440.00
2018-05-14T10:14:36.958Z,14388.00
2018-05-14T10:15:36.982Z,12640.00
2018-05-14T10:16:37.005Z,15296.00
2018-05-14T10:17:37.033Z,15040.00
2018-05-14T10:18:37.058Z,15104.00
2018-05-14T10:19:37.176Z,14480.00
2018-05-14T10:20:37.097Z,14632.00
2018-05-14T10:21:37.113Z,14744.00
2018-05-14T10:22:37.149Z,14884.00
2018-05-14T10:23:37.163Z,14548.00
2018-05-14T10:24:37.267Z,14840.00
2018-05-14T10:25:37.239Z,15104.00
2018-05-14T10:26:37.227Z,15200.00
2018-05-14T10:27:37.247Z,15200.00
2018-05-14T10:28:37.266Z,14804.00
2018-05-14T10:29:37.305Z,14368.00
2018-05-14T10:30:37.315Z,14916.00
2018-05-14T10:31:37.434Z,15104.00
2018-05-14T10:32:37.353Z,15200.00
2018-05-14T10:33:37.379Z,15296.00
2018-05-14T10:34:37.398Z,15328.00
2018-05-14T10:35:37.419Z,15392.00
2018-05-14T10:36:37.446Z,14428.00
2018-05-14T10:37:37.603Z,15168.00
2018-05-14T10:38:37.491Z,12484.00
2018-05-14T10:39:37.508Z,14892.00
2018-05-14T10:40:37.596Z,15104.00
2018-05-14T10:41:37.553Z,14712.00
2018-05-14T10:42:37.584Z,15200.00
2018-05-14T10:44:37.629Z,15296.00
2018-05-14T10:45:37.647Z,15328.00
2018-05-14T10:46:37.672Z,15296.00
2018-05-14T10:47:37.687Z,14608.00
2018-05-14T10:48:37.717Z,15456.00
2018-05-14T10:49:37.743Z,15424.00
2018-05-14T10:50:37.779Z,15456.00
2018-05-14T10:51:37.775Z,15488.00
2018-05-14T10:52:37.806Z,15424.00
2018-05-14T10:53:37.825Z,15424.00
2018-05-14T10:54:37.844Z,15424.00
2018-05-14T10:55:37.962Z,15584.00
2018-05-14T10:56:37.901Z,15456.00
2018-05-14T10:57:37.919Z,15456.00
2018-05-14T10:58:37.976Z,15424.00
2018-05-14T10:59:37.962Z,15360.00
2018-05-14T11:00:37.981Z,15392.00
2018-05-14T11:01:38.009Z,15136.00
2018-05-14T11:02:38.026Z,15232.00
2018-05-14T11:03:38.055Z,15424.00
2018-05-14T11:04:38.078Z,15456.00
2018-05-14T11:05:38.101Z,15392.00
2018-05-14T11:06:38.178Z,15488.00
2018-05-14T11:07:38.200Z,15488.00
2018-05-14T11:08:38.166Z,15488.00
2018-05-14T11:09:38.190Z,15552.00
2018-05-14T11:10:38.240Z,15520.00
2018-05-14T11:11:38.237Z,15488.00
2018-05-14T11:12:38.274Z,15712.00
2018-05-14T11:13:38.287Z,16000.00
2018-05-14T11:14:38.303Z,9868.00
2018-05-14T11:15:38.328Z,16160.00
2018-05-14T11:16:38.352Z,16320.00
2018-05-14T11:17:38.380Z,16192.00
2018-05-14T11:18:38.453Z,16224.00
2018-05-14T11:20:38.451Z,15936.00
2018-05-14T11:21:38.518Z,15744.00
2018-05-14T11:22:38.497Z,15584.00
2018-05-14T11:23:38.511Z,15552.00
2018-05-14T11:24:38.539Z,15744.00
2018-05-14T11:25:38.612Z,15872.00
2018-05-14T11:26:38.583Z,15968.00
2018-05-14T11:27:38.678Z,16224.00
2018-05-14T11:28:38.632Z,15840.00
2018-05-14T11:29:38.655Z,15136.00
2018-05-14T11:30:38.679Z,14532.00
2018-05-14T11:31:38.756Z,15424.00
2018-05-14T11:32:38.725Z,15584.00
2018-05-14T11:33:38.747Z,16192.00
2018-05-14T11:34:38.779Z,16128.00
2018-05-14T11:35:38.794Z,16256.00
2018-05-14T11:36:39.013Z,16192.00
2018-05-14T11:37:38.849Z,16160.00
2018-05-14T11:38:38.865Z,15808.00
2018-05-14T11:39:38.954Z,15904.00
2018-05-14T11:40:38.910Z,16160.00
2018-05-14T11:41:38.936Z,16288.00
2018-05-14T11:42:39.021Z,15936.00
2018-05-14T11:43:39.031Z,16096.00
2018-05-14T11:44:39.007Z,16288.00
2018-05-14T11:45:39.037Z,16032.00
2018-05-14T11:46:39.054Z,15104.00
2018-05-14T11:47:39.081Z,16192.00
2018-05-14T11:48:39.107Z,16032.00
2018-05-14T11:49:39.235Z,15936.00
2018-05-14T11:50:39.147Z,15904.00
2018-05-14T11:51:39.180Z,15840.00
2018-05-14T11:52:39.196Z,15904.00
2018-05-14T11:53:39.223Z,15808.00
2018-05-14T11:54:39.243Z,15968.00
2018-05-14T11:55:39.262Z,16032.00
2018-05-14T11:56:39.306Z,13176.00
2018-05-14T11:57:39.307Z,15968.00
2018-05-14T11:58:39.329Z,15872.00
2018-05-14T11:59:39.359Z,15744.00
2018-05-14T12:00:39.384Z,15872.00
2018-05-14T12:01:39.408Z,15872.00
2018-05-14T12:02:39.428Z,15840.00
2018-05-14T12:03:39.451Z,15744.00
2018-05-14T12:04:39.542Z,15808.00
2018-05-14T12:05:39.564Z,14196.00
2018-05-14T12:06:39.526Z,15200.00
2018-05-14T12:07:39.550Z,15680.00
2018-05-14T12:08:39.565Z,15360.00
2018-05-14T12:09:39.593Z,15296.00
2018-05-14T12:10:39.625Z,15904.00
2018-05-14T12:11:39.674Z,15744.00
2018-05-14T12:12:39.708Z,15456.00
2018-05-14T12:13:39.694Z,15712.00
2018-05-14T12:14:39.712Z,15712.00
2018-05-14T12:15:39.729Z,15840.00
2018-05-14T12:16:39.846Z,16032.00
2018-05-14T12:17:39.832Z,14020.00
2018-05-14T12:18:39.798Z,14468.00
2018-05-14T12:19:39.821Z,15808.00
2018-05-14T12:20:39.852Z,16192.00
2018-05-14T12:21:39.870Z,15872.00
2018-05-14T12:22:39.888Z,15232.00
2018-05-14T12:23:39.922Z,14828.00
2018-05-14T12:24:39.941Z,15904.00
2018-05-14T12:25:40.040Z,15936.00
2018-05-14T12:26:39.980Z,15840.00
2018-05-14T12:27:40.006Z,15872.00
2018-05-14T12:28:40.031Z,15872.00
2018-05-14T12:29:40.063Z,16128.00
2018-05-14T12:30:40.125Z,16544.00
2018-05-14T12:31:40.100Z,15968.00
2018-05-14T12:32:40.117Z,15776.00
2018-05-14T12:33:40.143Z,15808.00
2018-05-14T12:34:40.171Z,16096.00
2018-05-14T12:35:40.219Z,16096.00